Time,TemperatureF,DewpointF,PressureIn,WindDirection,WindDirectionDegrees,WindSpeedMPH,WindSpeedGustMPH,Humidity,HourlyPrecipIn,Conditions,Clouds,dailyrainin,SoftwareType,DateUTC
2013-04-16 00:00:00,32.0,29.4,30.02,WNW,294,2.0,11.5,90,0.00,,CLR,0.00,VWS V14.01,2013-04-16 05:00:00,
2013-04-16 00:10:00,32.1,29.5,30.02,West,275,6.0,10.5,90,0.00,,CLR,0.00,VWS V14.01,2013-04-16 05:10:00,
2013-04-16 00:20:00,32.1,29.5,30.03,West,275,6.0,6.3,90,0.00,,CLR,0.00,VWS V14.01,2013-04-16 05:20:00,
2013-04-16 00:25:00,32.1,29.5,30.03,West,275,6.0,6.3,90,0.00,,CLR,0.00,VWS V14.01,2013-04-16 05:25:00,
2013-04-16 00:30:00,32.1,29.5,30.02,West,275,6.0,6.3,90,0.00,,CLR,0.00,VWS V14.01,2013-04-16 05:30:00,
2013-04-16 00:35:00,32.1,29.5,30.02,West,275,6.0,6.3,90,0.00,,CLR,0.00,VWS V14.01,2013-04-16 05:35:00,
2013-04-16 00:40:00,32.1,29.5,30.03,West,273,8.0,10.5,90,0.00,,CLR,0.00,VWS V14.01,2013-04-16 05:40:00,
2013-04-16 00:50:00,32.0,29.4,30.03,WNW,288,7.0,10.5,90,0.00,,BKN029,0.00,VWS V14.01,2013-04-16 05:50:00,
2013-04-16 00:55:00,32.0,29.4,30.03,West,267,4.0,9.4,90,0.00,,BKN029,0.00,VWS V14.01,2013-04-16 05:55:00,
2013-04-16 01:00:00,31.9,29.3,30.04,West,271,7.0,10.5,90,0.00,,BKN029,0.00,VWS V14.01,2013-04-16 06:00:00,
2013-04-16 01:05:00,31.9,29.3,30.04,West,275,7.0,10.5,90,0.00,,OVC029,0.00,VWS V14.01,2013-04-16 06:05:00,
2013-04-16 01:10:00,31.9,29.3,30.04,West,275,7.0,7.3,90,0.00,,OVC029,0.00,VWS V14.01,2013-04-16 06:10:00,
2013-04-16 01:15:00,31.9,29.3,30.04,West,275,7.0,7.3,90,0.00,,OVC029,0.00,VWS V14.01,2013-04-16 06:15:00,
2013-04-16 01:20:00,31.9,29.3,30.04,West,275,7.0,7.3,90,0.00,,OVC029,0.00,VWS V14.01,2013-04-16 06:20:00,
2013-04-16 01:30:00,32.0,29.4,30.04,West,271,0.0,7.3,90,0.00,,OVC029,0.00,VWS V14.01,2013-04-16 06:30:00,
2013-04-16 01:35:00,32.1,29.5,30.04,WNW,290,0.0,4.2,90,0.00,,OVC029,0.00,VWS V14.01,2013-04-16 06:35:00,
2013-04-16 01:40:00,32.1,29.5,30.05,WNW,298,0.0,4.2,90,0.00,,OVC029,0.00,VWS V14.01,2013-04-16 06:40:00,
2013-04-16 01:45:00,32.1,29.5,30.05,West,279,2.0,3.1,90,0.00,,BKN029,0.00,VWS V14.01,2013-04-16 06:45:00,
2013-04-16 01:50:00,32.2,29.6,30.05,West,273,2.0,6.3,90,0.00,,BKN029,0.00,VWS V14.01,2013-04-16 06:50:00,
2013-04-16 01:55:00,32.2,29.6,30.05,WNW,302,3.0,8.4,90,0.00,,BKN029,0.00,VWS V14.01,2013-04-16 06:55:00,
2013-04-16 02:00:00,32.2,29.6,30.04,WSW,248,3.0,9.4,90,0.00,,BKN029,0.00,VWS V14.01,2013-04-16 07:00:00,
2013-04-16 02:10:00,32.2,29.0,30.04,WNW,303,4.0,8.4,88,0.00,,OVC029,0.00,VWS V14.01,2013-04-16 07:10:00,
2013-04-16 02:15:00,32.2,29.0,30.05,NW,306,0.0,4.2,88,0.00,,OVC029,0.00,VWS V14.01,2013-04-16 07:15:00,
2013-04-16 02:20:00,32.1,29.2,30.05,NW,306,0.0,4.2,89,0.00,,OVC029,0.00,VWS V14.01,2013-04-16 07:20:00,
2013-04-16 02:25:00,32.1,29.0,30.05,WNW,296,1.0,9.4,88,0.00,,BKN027,0.00,VWS V14.01,2013-04-16 07:25:00,
2013-04-16 02:30:00,32.2,28.8,30.05,WNW,288,5.0,13.6,87,0.00,,BKN027,0.00,VWS V14.01,2013-04-16 07:30:00,
2013-04-16 02:35:00,32.3,28.6,30.06,WNW,300,3.0,9.4,86,0.00,,BKN027,0.00,VWS V14.01,2013-04-16 07:35:00,
2013-04-16 02:45:00,32.1,28.7,30.06,WNW,299,4.0,7.3,87,0.00,,BKN027,0.00,VWS V14.01,2013-04-16 07:45:00,
2013-04-16 02:50:00,32.0,28.6,30.06,WNW,284,7.0,10.5,87,0.00,,BKN027,0.00,VWS V14.01,2013-04-16 07:50:00,
2013-04-16 03:00:00,31.9,28.5,30.07,WNW,294,4.0,8.4,87,0.00,,BKN027,0.00,VWS V14.01,2013-04-16 08:00:00,
2013-04-16 03:05:00,31.8,28.1,30.06,West,269,4.0,8.4,86,0.00,,SCT027,0.00,VWS V14.01,2013-04-16 08:05:00,
2013-04-16 03:15:00,31.7,27.7,30.06,NW,323,4.0,11.5,85,0.00,,SCT027,0.00,VWS V14.01,2013-04-16 08:15:00,
2013-04-16 03:20:00,31.7,27.7,30.06,NW,323,9.0,12.6,85,0.00,,SCT027,0.00,VWS V14.01,2013-04-16 08:20:00,
2013-04-16 03:25:00,31.7,27.7,30.07,NW,304,5.0,15.7,85,0.00,,CLR,0.00,VWS V14.01,2013-04-16 08:25:00,
2013-04-16 03:35:00,31.5,27.8,30.07,NW,310,5.0,12.6,86,0.00,,CLR,0.00,VWS V14.01,2013-04-16 08:35:00,
2013-04-16 03:40:00,31.4,27.4,30.07,WNW,302,8.0,11.5,85,0.00,,CLR,0.00,VWS V14.01,2013-04-16 08:40:00,
2013-04-16 03:45:00,31.4,27.4,30.08,WNW,302,8.0,8.4,85,0.00,,CLR,0.00,VWS V14.01,2013-04-16 08:45:00,
2013-04-16 03:50:00,31.2,27.8,30.07,WNW,289,4.0,9.4,87,0.00,,CLR,0.00,VWS V14.01,2013-04-16 08:50:00,
2013-04-16 03:55:00,31.2,27.8,30.08,WNW,299,3.0,10.5,87,0.00,,CLR,0.00,VWS V14.01,2013-04-16 08:55:00,
2013-04-16 04:05:00,31.0,27.6,30.09,WNW,294,4.0,8.4,87,0.00,,CLR,0.00,VWS V14.01,2013-04-16 09:05:00,
2013-04-16 04:15:00,31.1,27.7,30.10,WNW,288,0.0,5.2,87,0.00,,CLR,0.00,VWS V14.01,2013-04-16 09:15:00,
2013-04-16 04:20:00,31.1,28.0,30.10,WNW,298,0.0,1.0,88,0.00,,CLR,0.00,VWS V14.01,2013-04-16 09:20:00,
2013-04-16 04:25:00,31.0,28.1,30.10,West,281,0.0,0.0,89,0.00,,CLR,0.00,VWS V14.01,2013-04-16 09:25:00,
2013-04-16 04:30:00,30.7,27.9,30.10,WNW,293,0.0,1.0,89,0.00,,CLR,0.00,VWS V14.01,2013-04-16 09:30:00,
2013-04-16 04:35:00,30.5,27.9,30.10,WNW,284,0.0,2.1,90,0.00,,CLR,0.00,VWS V14.01,2013-04-16 09:35:00,
2013-04-16 04:40:00,30.2,27.6,30.09,NW,306,3.0,4.2,90,0.00,,CLR,0.00,VWS V14.01,2013-04-16 09:40:00,
2013-04-16 04:45:00,29.9,27.6,30.09,WNW,287,0.0,6.3,91,0.00,,CLR,0.00,VWS V14.01,2013-04-16 09:45:00,
2013-04-16 04:50:00,29.7,27.4,30.09,WNW,287,0.0,0.0,91,0.00,,CLR,0.00,VWS V14.01,2013-04-16 09:50:00,
2013-04-16 04:55:00,29.3,27.0,30.10,WNW,290,0.0,0.0,91,0.00,,CLR,0.00,VWS V14.01,2013-04-16 09:55:00,
2013-04-16 05:00:00,29.1,26.8,30.10,WNW,290,0.0,0.0,91,0.00,,CLR,0.00,VWS V14.01,2013-04-16 10:00:00,
2013-04-16 05:05:00,29.0,27.0,30.10,West,276,0.0,0.0,92,0.00,,CLR,0.00,VWS V14.01,2013-04-16 10:05:00,
2013-04-16 05:15:00,28.9,26.9,30.11,WNW,292,2.0,8.4,92,0.00,,CLR,0.00,VWS V14.01,2013-04-16 10:15:00,
2013-04-16 05:20:00,28.8,26.8,30.12,West,275,3.0,6.3,92,0.00,,CLR,0.00,VWS V14.01,2013-04-16 10:20:00,
2013-04-16 05:25:00,28.8,26.8,30.12,West,278,4.0,7.3,92,0.00,,CLR,0.00,VWS V14.01,2013-04-16 10:25:00,
2013-04-16 05:30:00,28.8,26.8,30.12,SW,227,3.0,8.4,92,0.00,,CLR,0.00,VWS V14.01,2013-04-16 10:30:00,
2013-04-16 05:35:00,28.6,26.6,30.12,WNW,287,0.0,8.4,92,0.00,,CLR,0.00,VWS V14.01,2013-04-16 10:35:00,
2013-04-16 05:40:00,28.5,26.5,30.12,WNW,283,2.0,6.3,92,0.00,,CLR,0.00,VWS V14.01,2013-04-16 10:40:00,
2013-04-16 05:45:00,28.4,26.4,30.12,WNW,296,0.0,4.2,92,0.00,,CLR,0.00,VWS V14.01,2013-04-16 10:45:00,
2013-04-16 05:50:00,28.3,26.5,30.12,WNW,300,0.0,4.2,93,0.00,,CLR,0.00,VWS V14.01,2013-04-16 10:50:00,
2013-04-16 05:55:00,28.1,26.3,30.12,WNW,299,0.0,0.0,93,0.00,,CLR,0.00,VWS V14.01,2013-04-16 10:55:00,
2013-04-16 06:00:00,28.1,26.3,30.12,WNW,300,0.0,0.0,93,0.00,,CLR,0.00,VWS V14.01,2013-04-16 11:00:00,
2013-04-16 06:05:00,28.0,26.2,30.13,West,277,0.0,4.2,93,0.00,,CLR,0.00,VWS V14.01,2013-04-16 11:05:00,
2013-04-16 06:10:00,28.0,26.2,30.13,NW,311,2.0,4.2,93,0.00,,CLR,0.00,VWS V14.01,2013-04-16 11:10:00,
2013-04-16 06:20:00,27.9,26.1,30.15,West,273,0.0,8.4,93,0.00,,CLR,0.00,VWS V14.01,2013-04-16 11:20:00,
2013-04-16 06:25:00,28.0,26.2,30.15,WNW,288,2.0,8.4,93,0.00,,CLR,0.00,VWS V14.01,2013-04-16 11:25:00,
2013-04-16 06:30:00,27.9,26.1,30.15,WNW,284,4.0,9.4,93,0.00,,CLR,0.00,VWS V14.01,2013-04-16 11:30:00,
2013-04-16 06:40:00,27.9,26.1,30.15,WNW,284,0.0,8.4,93,0.00,,CLR,0.00,VWS V14.01,2013-04-16 11:40:00,
2013-04-16 06:45:00,27.7,25.9,30.15,WNW,299,0.0,6.3,93,0.00,,CLR,0.00,VWS V14.01,2013-04-16 11:45:00,
2013-04-16 06:50:00,27.7,25.9,30.15,WNW,297,0.0,0.0,93,0.00,,CLR,0.00,VWS V14.01,2013-04-16 11:50:00,
2013-04-16 06:55:00,27.8,26.0,30.15,WNW,293,0.0,0.0,93,0.00,,CLR,0.00,VWS V14.01,2013-04-16 11:55:00,
2013-04-16 07:00:00,27.8,26.0,30.15,WNW,293,0.0,0.0,93,0.00,,CLR,0.00,VWS V14.01,2013-04-16 12:00:00,
2013-04-16 07:05:00,27.9,26.1,30.15,West,281,0.0,3.1,93,0.00,,CLR,0.00,VWS V14.01,2013-04-16 12:05:00,
2013-04-16 07:10:00,27.9,26.1,30.15,NW,313,0.0,2.1,93,0.00,,CLR,0.00,VWS V14.01,2013-04-16 12:10:00,
2013-04-16 07:15:00,27.9,26.1,30.15,WSW,256,0.0,0.0,93,0.00,,CLR,0.00,VWS V14.01,2013-04-16 12:15:00,
2013-04-16 07:20:00,28.1,26.3,30.16,NW,306,0.0,0.0,93,0.00,,CLR,0.00,VWS V14.01,2013-04-16 12:20:00,
2013-04-16 07:25:00,28.3,26.5,30.16,WNW,295,0.0,0.0,93,0.00,,CLR,0.00,VWS V14.01,2013-04-16 12:25:00,
2013-04-16 07:30:00,28.5,26.7,30.17,WNW,297,0.0,0.0,93,0.00,,CLR,0.00,VWS V14.01,2013-04-16 12:30:00,
2013-04-16 07:35:00,28.7,26.7,30.17,NW,307,0.0,3.1,92,0.00,,CLR,0.00,VWS V14.01,2013-04-16 12:35:00,
2013-04-16 07:40:00,28.9,26.9,30.18,NW,306,0.0,4.2,92,0.00,,CLR,0.00,VWS V14.01,2013-04-16 12:40:00,
2013-04-16 07:45:00,29.2,27.2,30.19,NW,311,5.0,5.2,92,0.00,,CLR,0.00,VWS V14.01,2013-04-16 12:45:00,
2013-04-16 07:50:00,29.5,27.5,30.19,WNW,294,0.0,5.2,92,0.00,,CLR,0.00,VWS V14.01,2013-04-16 12:50:00,
2013-04-16 07:55:00,29.6,27.3,30.18,WNW,299,3.0,8.4,91,0.00,,CLR,0.00,VWS V14.01,2013-04-16 12:55:00,
2013-04-16 08:00:00,29.6,27.0,30.19,NW,306,5.0,10.5,90,0.00,,CLR,0.00,VWS V14.01,2013-04-16 13:00:00,
2013-04-16 08:05:00,29.7,27.1,30.19,NW,312,4.0,8.4,90,0.00,,CLR,0.00,VWS V14.01,2013-04-16 13:05:00,
2013-04-16 08:10:00,29.9,27.3,30.19,WNW,302,3.0,11.5,90,0.00,,CLR,0.00,VWS V14.01,2013-04-16 13:10:00,
2013-04-16 08:15:00,30.2,27.6,30.19,WNW,284,2.0,9.4,90,0.00,,CLR,0.00,VWS V14.01,2013-04-16 13:15:00,
2013-04-16 08:20:00,30.4,27.8,30.19,NW,310,5.0,10.5,90,0.00,,CLR,0.00,VWS V14.01,2013-04-16 13:20:00,
2013-04-16 08:25:00,30.6,28.0,30.20,NW,316,8.0,11.5,90,0.00,,CLR,0.00,VWS V14.01,2013-04-16 13:25:00,
2013-04-16 08:30:00,30.8,28.2,30.20,NW,318,6.0,10.5,90,0.00,,CLR,0.00,VWS V14.01,2013-04-16 13:30:00,
2013-04-16 08:35:00,31.0,28.1,30.19,WNW,298,8.0,9.4,89,0.00,,CLR,0.00,VWS V14.01,2013-04-16 13:35:00,
2013-04-16 08:40:00,31.2,28.3,30.20,NW,309,7.0,11.5,89,0.00,,CLR,0.00,VWS V14.01,2013-04-16 13:40:00,
2013-04-16 08:45:00,31.4,28.8,30.20,WNW,300,4.0,11.5,90,0.00,,CLR,0.00,VWS V14.01,2013-04-16 13:45:00,
2013-04-16 08:50:00,31.5,28.6,30.21,NW,308,7.0,13.6,89,0.00,,CLR,0.00,VWS V14.01,2013-04-16 13:50:00,
2013-04-16 08:55:00,31.9,29.0,30.21,NW,306,3.0,10.5,89,0.00,,CLR,0.00,VWS V14.01,2013-04-16 13:55:00,
2013-04-16 09:00:00,32.1,29.2,30.21,NW,316,8.0,11.5,89,0.00,,CLR,0.00,VWS V14.01,2013-04-16 14:00:00,
2013-04-16 09:05:00,32.1,29.0,30.21,WNW,286,7.0,11.5,88,0.00,,CLR,0.00,VWS V14.01,2013-04-16 14:05:00,
2013-04-16 09:10:00,32.2,29.0,30.21,NW,304,4.0,11.5,88,0.00,,CLR,0.00,VWS V14.01,2013-04-16 14:10:00,
2013-04-16 09:15:00,32.4,29.2,30.21,NW,308,3.0,10.5,88,0.00,,CLR,0.00,VWS V14.01,2013-04-16 14:15:00,
2013-04-16 09:20:00,32.6,29.5,30.21,NW,317,8.0,9.4,88,0.00,,CLR,0.00,VWS V14.01,2013-04-16 14:20:00,
2013-04-16 09:25:00,32.6,29.5,30.22,NW,315,3.0,10.5,88,0.00,,CLR,0.00,VWS V14.01,2013-04-16 14:25:00,
2013-04-16 09:30:00,32.8,29.6,30.22,NW,309,3.0,11.5,88,0.00,,CLR,0.00,VWS V14.01,2013-04-16 14:30:00,
2013-04-16 09:40:00,32.9,29.5,30.22,WNW,289,4.0,12.6,87,0.00,,CLR,0.00,VWS V14.01,2013-04-16 14:40:00,
2013-04-16 09:45:00,32.9,29.2,30.23,NW,323,1.0,11.5,86,0.00,,CLR,0.00,VWS V14.01,2013-04-16 14:45:00,
2013-04-16 09:50:00,33.1,29.4,30.23,NW,314,5.0,10.5,86,0.00,,CLR,0.00,VWS V14.01,2013-04-16 14:50:00,
2013-04-16 10:00:00,33.5,30.0,30.23,NNW,330,5.0,8.4,87,0.00,,CLR,0.00,VWS V14.01,2013-04-16 15:00:00,
2013-04-16 10:05:00,33.4,29.7,30.23,NW,311,0.0,11.5,86,0.00,,CLR,0.00,VWS V14.01,2013-04-16 15:05:00,
2013-04-16 10:10:00,33.5,29.8,30.23,NW,323,6.0,10.5,86,0.00,,CLR,0.00,VWS V14.01,2013-04-16 15:10:00,
2013-04-16 10:15:00,33.5,29.8,30.24,NW,310,5.0,11.5,86,0.00,,CLR,0.00,VWS V14.01,2013-04-16 15:15:00,
2013-04-16 10:20:00,33.8,30.1,30.24,NW,314,4.0,9.4,86,0.00,,CLR,0.00,VWS V14.01,2013-04-16 15:20:00,
2013-04-16 10:25:00,34.1,30.6,30.24,WNW,295,3.0,9.4,87,0.00,,CLR,0.00,VWS V14.01,2013-04-16 15:25:00,
2013-04-16 10:30:00,34.5,30.8,30.24,NW,309,5.0,9.4,86,0.00,,CLR,0.00,VWS V14.01,2013-04-16 15:30:00,
2013-04-16 10:35:00,34.2,30.2,30.24,NW,307,7.0,10.5,85,0.00,,CLR,0.00,VWS V14.01,2013-04-16 15:35:00,
2013-04-16 10:40:00,34.3,30.6,30.25,NW,304,1.0,8.4,86,0.00,,CLR,0.00,VWS V14.01,2013-04-16 15:40:00,
2013-04-16 10:45:00,34.7,31.0,30.25,NW,312,3.0,4.2,86,0.00,,CLR,0.00,VWS V14.01,2013-04-16 15:45:00,
2013-04-16 10:50:00,34.9,30.9,30.25,NW,318,3.0,10.5,85,0.00,,CLR,0.00,VWS V14.01,2013-04-16 15:50:00,
2013-04-16 10:55:00,35.0,30.7,30.25,NW,304,3.0,8.4,84,0.00,,CLR,0.00,VWS V14.01,2013-04-16 15:55:00,
2013-04-16 11:00:00,35.3,31.2,30.25,NW,311,0.0,6.3,85,0.00,,CLR,0.00,VWS V14.01,2013-04-16 16:00:00,
2013-04-16 11:05:00,35.4,31.4,30.25,NW,317,3.0,6.3,85,0.00,,CLR,0.00,VWS V14.01,2013-04-16 16:05:00,
2013-04-16 11:10:00,35.0,30.7,30.25,WNW,292,0.0,8.4,84,0.00,,CLR,0.00,VWS V14.01,2013-04-16 16:10:00,
2013-04-16 11:15:00,35.0,30.4,30.25,NW,304,4.0,10.5,83,0.00,,CLR,0.00,VWS V14.01,2013-04-16 16:15:00,
2013-04-16 11:20:00,34.9,30.9,30.26,NW,315,3.0,8.4,85,0.00,,CLR,0.00,VWS V14.01,2013-04-16 16:20:00,
2013-04-16 11:25:00,34.8,30.8,30.26,NW,311,4.0,8.4,85,0.00,,CLR,0.00,VWS V14.01,2013-04-16 16:25:00,
2013-04-16 11:30:00,34.7,30.7,30.26,NW,309,3.0,9.4,85,0.00,,CLR,0.00,VWS V14.01,2013-04-16 16:30:00,
2013-04-16 11:35:00,35.0,31.0,30.26,NW,313,8.0,9.4,85,0.00,,CLR,0.00,VWS V14.01,2013-04-16 16:35:00,
2013-04-16 11:40:00,35.0,31.0,30.26,NW,323,5.0,8.4,85,0.00,,CLR,0.00,VWS V14.01,2013-04-16 16:40:00,
2013-04-16 11:45:00,35.2,31.1,30.27,NW,314,5.0,8.4,85,0.00,,CLR,0.00,VWS V14.01,2013-04-16 16:45:00,
2013-04-16 11:50:00,35.2,30.9,30.27,WNW,299,4.0,7.3,84,0.00,,CLR,0.00,VWS V14.01,2013-04-16 16:50:00,
2013-04-16 11:55:00,35.6,31.2,30.27,WNW,299,2.0,8.4,84,0.00,,CLR,0.00,VWS V14.01,2013-04-16 16:55:00,
2013-04-16 12:00:00,35.5,30.6,30.27,NW,315,4.0,10.5,82,0.00,,CLR,0.00,VWS V14.01,2013-04-16 17:00:00,
2013-04-16 12:05:00,35.5,30.9,30.27,NW,321,3.0,8.4,83,0.00,,CLR,0.00,VWS V14.01,2013-04-16 17:05:00,
2013-04-16 12:10:00,35.5,30.6,30.27,West,281,0.0,6.3,82,0.00,,CLR,0.00,VWS V14.01,2013-04-16 17:10:00,
2013-04-16 12:15:00,36.0,31.6,30.27,WNW,301,5.0,5.2,84,0.00,,CLR,0.00,VWS V14.01,2013-04-16 17:15:00,
2013-04-16 12:20:00,35.8,30.5,30.27,NW,311,4.0,9.4,81,0.00,,CLR,0.00,VWS V14.01,2013-04-16 17:20:00,
2013-04-16 12:25:00,35.8,31.1,30.27,WNW,290,0.0,8.4,83,0.00,,CLR,0.00,VWS V14.01,2013-04-16 17:25:00,
2013-04-16 12:30:00,35.9,31.2,30.27,NW,321,3.0,6.3,83,0.00,,CLR,0.00,VWS V14.01,2013-04-16 17:30:00,
2013-04-16 12:35:00,36.3,31.3,30.27,NW,311,0.0,8.4,82,0.00,,CLR,0.00,VWS V14.01,2013-04-16 17:35:00,
2013-04-16 12:40:00,36.6,31.3,30.27,NW,309,8.0,9.4,81,0.00,,CLR,0.00,VWS V14.01,2013-04-16 17:40:00,
2013-04-16 12:45:00,36.4,31.1,30.27,NW,312,4.0,9.4,81,0.00,,CLR,0.00,VWS V14.01,2013-04-16 17:45:00,
2013-04-16 12:50:00,36.2,30.9,30.27,NNW,333,0.0,5.2,81,0.00,,CLR,0.00,VWS V14.01,2013-04-16 17:50:00,
2013-04-16 12:55:00,36.2,31.5,30.27,NW,311,4.0,9.4,83,0.00,,CLR,0.00,VWS V14.01,2013-04-16 17:55:00,
2013-04-16 13:00:00,36.1,31.5,30.27,NW,324,5.0,7.3,83,0.00,,CLR,0.00,VWS V14.01,2013-04-16 18:00:00,
2013-04-16 13:05:00,36.1,30.8,30.27,NW,308,8.0,9.4,81,0.00,,CLR,0.00,VWS V14.01,2013-04-16 18:05:00,
2013-04-16 13:15:00,36.1,31.1,30.28,NNW,327,0.0,10.5,82,0.00,,CLR,0.00,VWS V14.01,2013-04-16 18:15:00,
2013-04-16 13:20:00,36.6,31.3,30.28,NW,311,0.0,6.3,81,0.00,,CLR,0.00,VWS V14.01,2013-04-16 18:20:00,
2013-04-16 13:25:00,36.8,31.5,30.28,NW,324,0.0,7.3,81,0.00,,CLR,0.00,VWS V14.01,2013-04-16 18:25:00,
2013-04-16 13:30:00,36.8,31.5,30.28,WNW,296,0.0,7.3,81,0.00,,CLR,0.00,VWS V14.01,2013-04-16 18:30:00,
2013-04-16 13:35:00,36.7,31.7,30.28,WNW,296,1.0,7.3,82,0.00,,CLR,0.00,VWS V14.01,2013-04-16 18:35:00,
2013-04-16 13:40:00,36.9,32.5,30.27,WNW,293,4.0,7.3,84,0.00,,CLR,0.00,VWS V14.01,2013-04-16 18:40:00,
2013-04-16 13:45:00,37.5,32.5,30.27,NW,306,4.0,5.2,82,0.00,,CLR,0.00,VWS V14.01,2013-04-16 18:45:00,
2013-04-16 13:50:00,37.4,32.1,30.27,NW,318,2.0,8.4,81,0.00,,CLR,0.00,VWS V14.01,2013-04-16 18:50:00,
2013-04-16 13:55:00,37.4,32.1,30.27,NW,306,3.0,6.3,81,0.00,,CLR,0.00,VWS V14.01,2013-04-16 18:55:00,
2013-04-16 14:00:00,37.4,31.8,30.28,NW,306,2.0,3.1,80,0.00,,CLR,0.00,VWS V14.01,2013-04-16 19:00:00,
2013-04-16 14:05:00,37.3,31.7,30.28,NW,319,0.0,8.4,80,0.00,,CLR,0.00,VWS V14.01,2013-04-16 19:05:00,
2013-04-16 14:10:00,37.2,31.6,30.28,NW,319,0.0,7.3,80,0.00,,CLR,0.00,VWS V14.01,2013-04-16 19:10:00,
2013-04-16 14:15:00,37.1,31.8,30.28,NW,309,0.0,9.4,81,0.00,,CLR,0.00,VWS V14.01,2013-04-16 19:15:00,
2013-04-16 14:20:00,37.2,31.9,30.28,NW,315,0.0,5.2,81,0.00,,CLR,0.00,VWS V14.01,2013-04-16 19:20:00,
2013-04-16 14:25:00,37.4,32.4,30.28,NW,304,5.0,9.4,82,0.00,,CLR,0.00,VWS V14.01,2013-04-16 19:25:00,
2013-04-16 14:30:00,37.2,32.2,30.28,NW,311,6.0,9.4,82,0.00,,CLR,0.00,VWS V14.01,2013-04-16 19:30:00,
2013-04-16 14:35:00,37.1,31.8,30.28,NW,313,4.0,8.4,81,0.00,,CLR,0.00,VWS V14.01,2013-04-16 19:35:00,
2013-04-16 14:40:00,37.2,31.9,30.28,NW,323,1.0,7.3,81,0.00,,CLR,0.00,VWS V14.01,2013-04-16 19:40:00,
2013-04-16 14:45:00,37.7,31.8,30.28,NW,312,4.0,8.4,79,0.00,,CLR,0.00,VWS V14.01,2013-04-16 19:45:00,
2013-04-16 14:50:00,37.8,32.2,30.28,NW,313,9.0,9.4,80,0.00,,CLR,0.00,VWS V14.01,2013-04-16 19:50:00,
2013-04-16 14:55:00,37.9,32.0,30.28,West,265,2.0,9.4,79,0.00,,CLR,0.00,VWS V14.01,2013-04-16 19:55:00,
2013-04-16 15:00:00,38.2,32.3,30.27,NNW,327,0.0,7.3,79,0.00,,CLR,0.00,VWS V14.01,2013-04-16 20:00:00,
2013-04-16 15:10:00,38.5,32.6,30.28,NW,305,5.0,9.4,79,0.00,,SCT020,0.00,VWS V14.01,2013-04-16 20:10:00,
2013-04-16 15:15:00,38.5,32.9,30.28,NW,306,3.0,10.5,80,0.00,,SCT020,0.00,VWS V14.01,2013-04-16 20:15:00,
2013-04-16 15:20:00,38.5,32.9,30.28,NW,320,5.0,9.4,80,0.00,,SCT020,0.00,VWS V14.01,2013-04-16 20:20:00,
2013-04-16 15:25:00,38.7,32.8,30.28,NW,325,5.0,9.4,79,0.00,,BKN020,0.00,VWS V14.01,2013-04-16 20:25:00,
2013-04-16 15:30:00,38.7,32.4,30.28,NW,310,1.0,9.4,78,0.00,,BKN020,0.00,VWS V14.01,2013-04-16 20:30:00,
2013-04-16 15:35:00,38.6,32.7,30.28,NW,304,5.0,8.4,79,0.00,,BKN020,0.00,VWS V14.01,2013-04-16 20:35:00,
2013-04-16 15:40:00,38.4,32.2,30.28,NNW,340,0.0,9.4,78,0.00,,BKN020,0.00,VWS V14.01,2013-04-16 20:40:00,
2013-04-16 15:45:00,38.3,32.0,30.28,NNW,347,0.0,10.5,78,0.00,,BKN022,0.00,VWS V14.01,2013-04-16 20:45:00,
2013-04-16 15:50:00,38.5,32.2,30.27,NW,314,2.0,9.4,78,0.00,,BKN022,0.00,VWS V14.01,2013-04-16 20:50:00,
2013-04-16 15:55:00,38.3,32.4,30.27,NNW,343,0.0,9.4,79,0.00,,BKN022,0.00,VWS V14.01,2013-04-16 20:55:00,
2013-04-16 16:00:00,38.5,32.9,30.27,North,355,3.0,6.3,80,0.00,,BKN022,0.00,VWS V14.01,2013-04-16 21:00:00,
2013-04-16 16:05:00,38.6,32.0,30.27,North,5,0.0,9.4,77,0.00,,BKN022,0.00,VWS V14.01,2013-04-16 21:05:00,
2013-04-16 16:10:00,38.6,32.0,30.26,North,355,8.0,9.4,77,0.00,,BKN022,0.00,VWS V14.01,2013-04-16 21:10:00,
2013-04-16 16:15:00,38.7,32.8,30.26,NNW,347,5.0,10.5,79,0.00,,BKN022,0.00,VWS V14.01,2013-04-16 21:15:00,
2013-04-16 16:20:00,38.9,33.0,30.26,NW,323,6.0,12.6,79,0.00,,BKN022,0.00,VWS V14.01,2013-04-16 21:20:00,
2013-04-16 16:25:00,38.9,32.3,30.26,North,355,6.0,9.4,77,0.00,,SCT022,0.00,VWS V14.01,2013-04-16 21:25:00,
2013-04-16 16:30:00,39.0,31.8,30.27,NW,321,4.0,10.5,75,0.00,,SCT022,0.00,VWS V14.01,2013-04-16 21:30:00,
2013-04-16 16:35:00,39.1,31.9,30.27,NW,315,1.0,7.3,75,0.00,,SCT022,0.00,VWS V14.01,2013-04-16 21:35:00,
2013-04-16 16:40:00,39.5,32.6,30.27,North,5,3.0,7.3,76,0.00,,SCT022,0.00,VWS V14.01,2013-04-16 21:40:00,
2013-04-16 16:50:00,39.5,32.2,30.27,NNW,346,4.0,10.5,75,0.00,,SCT024,0.00,VWS V14.01,2013-04-16 21:50:00,
2013-04-16 16:55:00,39.1,32.2,30.27,North,9,5.0,9.4,76,0.00,,SCT024,0.00,VWS V14.01,2013-04-16 21:55:00,
2013-04-16 17:00:00,38.8,32.2,30.27,North,360,4.0,9.4,77,0.00,,SCT024,0.00,VWS V14.01,2013-04-16 22:00:00,
2013-04-16 17:05:00,38.6,32.3,30.27,NNW,345,3.0,9.4,78,0.00,,BKN024,0.00,VWS V14.01,2013-04-16 22:05:00,
2013-04-16 17:15:00,38.8,32.2,30.28,NW,321,0.0,5.2,77,0.00,,BKN024,0.00,VWS V14.01,2013-04-16 22:15:00,
2013-04-16 17:20:00,39.0,32.4,30.28,NNW,329,4.0,6.3,77,0.00,,BKN024,0.00,VWS V14.01,2013-04-16 22:20:00,
2013-04-16 17:25:00,38.8,32.2,30.28,North,355,0.0,10.5,77,0.00,,OVC024,0.00,VWS V14.01,2013-04-16 22:25:00,
2013-04-16 17:35:00,39.2,32.9,30.28,North,5,2.0,4.2,78,0.00,,OVC024,0.00,VWS V14.01,2013-04-16 22:35:00,
2013-04-16 17:45:00,39.6,32.7,30.28,NW,315,0.0,8.4,76,0.00,,OVC029,0.00,VWS V14.01,2013-04-16 22:45:00,
2013-04-16 17:50:00,39.2,32.6,30.28,NW,306,1.0,5.2,77,0.00,,OVC029,0.00,VWS V14.01,2013-04-16 22:50:00,
2013-04-16 17:55:00,39.2,33.2,30.28,NW,319,8.0,8.4,79,0.00,,OVC029,0.00,VWS V14.01,2013-04-16 22:55:00,
2013-04-16 18:00:00,39.2,33.2,30.28,NNW,338,0.0,8.4,79,0.00,,OVC029,0.00,VWS V14.01,2013-04-16 23:00:00,
2013-04-16 18:10:00,39.1,32.8,30.29,NW,305,0.0,4.2,78,0.00,,BKN027,0.00,VWS V14.01,2013-04-16 23:10:00,
2013-04-16 18:15:00,38.9,32.6,30.29,NW,326,0.0,5.2,78,0.00,,BKN027,0.00,VWS V14.01,2013-04-16 23:15:00,
2013-04-16 18:20:00,38.8,32.5,30.29,NW,304,0.0,4.2,78,0.00,,BKN027,0.00,VWS V14.01,2013-04-16 23:20:00,
2013-04-16 18:30:00,38.4,32.5,30.29,NW,317,0.0,6.3,79,0.00,,OVC027,0.00,VWS V14.01,2013-04-16 23:30:00,
2013-04-16 18:35:00,38.3,32.4,30.29,NNW,348,5.0,9.4,79,0.00,,OVC027,0.00,VWS V14.01,2013-04-16 23:35:00,
2013-04-16 18:40:00,38.2,32.3,30.29,NNW,330,2.0,8.4,79,0.00,,OVC027,0.00,VWS V14.01,2013-04-16 23:40:00,
2013-04-16 18:45:00,38.0,32.1,30.29,NNW,340,3.0,5.2,79,0.00,,OVC027,0.00,VWS V14.01,2013-04-16 23:45:00,
2013-04-16 18:50:00,38.1,32.5,30.29,North,355,4.0,6.3,80,0.00,,OVC027,0.00,VWS V14.01,2013-04-16 23:50:00,
2013-04-16 18:55:00,38.1,32.5,30.29,NE,44,2.0,5.2,80,0.00,,OVC027,0.00,VWS V14.01,2013-04-16 23:55:00,
2013-04-16 19:00:00,38.1,32.2,30.29,North,351,4.0,8.4,79,0.00,,OVC027,0.00,VWS V14.01,2013-04-17 00:00:00,
2013-04-16 19:10:00,37.9,32.0,30.29,NNW,344,3.0,8.4,79,0.00,,OVC027,0.00,VWS V14.01,2013-04-17 00:10:00,
2013-04-16 19:15:00,37.9,32.3,30.29,NNW,339,3.0,6.3,80,0.00,,OVC027,0.00,VWS V14.01,2013-04-17 00:15:00,
2013-04-16 19:20:00,37.7,32.1,30.29,North,350,5.0,8.4,80,0.00,,OVC027,0.00,VWS V14.01,2013-04-17 00:20:00,
2013-04-16 19:25:00,37.6,32.0,30.30,North,351,4.0,9.4,80,0.00,,OVC031,0.00,VWS V14.01,2013-04-17 00:25:00,
2013-04-16 19:30:00,37.5,32.2,30.30,NNW,341,3.0,5.2,81,0.00,,OVC031,0.00,VWS V14.01,2013-04-17 00:30:00,
2013-04-16 19:35:00,37.5,32.2,30.30,NNW,342,0.0,4.2,81,0.00,,OVC031,0.00,VWS V14.01,2013-04-17 00:35:00,
2013-04-16 19:40:00,37.4,32.4,30.30,North,360,0.0,0.0,82,0.00,,OVC031,0.00,VWS V14.01,2013-04-17 00:40:00,
2013-04-16 19:45:00,37.3,32.3,30.30,NW,325,0.0,3.1,82,0.00,,OVC033,0.00,VWS V14.01,2013-04-17 00:45:00,
2013-04-16 19:50:00,37.1,32.4,30.30,NW,325,0.0,0.0,83,0.00,,OVC033,0.00,VWS V14.01,2013-04-17 00:50:00,
2013-04-16 19:55:00,36.8,32.4,30.30,NW,325,0.0,0.0,84,0.00,,OVC033,0.00,VWS V14.01,2013-04-17 00:55:00,
2013-04-16 20:00:00,36.7,32.3,30.30,NW,325,0.0,0.0,84,0.00,,OVC033,0.00,VWS V14.01,2013-04-17 01:00:00,
2013-04-16 20:05:00,36.5,32.4,30.30,NW,325,0.0,0.0,85,0.00,,OVC026,0.00,VWS V14.01,2013-04-17 01:05:00,
2013-04-16 20:15:00,36.0,32.2,30.30,NW,325,0.0,0.0,86,0.00,,OVC026,0.00,VWS V14.01,2013-04-17 01:15:00,
2013-04-16 20:25:00,35.4,32.2,30.30,NW,321,0.0,3.1,88,0.00,,OVC026,0.00,VWS V14.01,2013-04-17 01:25:00,
2013-04-16 20:30:00,35.2,32.3,30.31,NW,323,0.0,3.1,89,0.00,,OVC026,0.00,VWS V14.01,2013-04-17 01:30:00,
2013-04-16 20:35:00,35.0,31.8,30.31,NW,324,3.0,4.2,88,0.00,,OVC026,0.00,VWS V14.01,2013-04-17 01:35:00,
2013-04-16 20:40:00,34.9,32.0,30.31,NW,324,0.0,3.1,89,0.00,,OVC026,0.00,VWS V14.01,2013-04-17 01:40:00,
2013-04-16 20:45:00,34.7,31.8,30.31,NW,322,0.0,0.0,89,0.00,,OVC100,0.00,VWS V14.01,2013-04-17 01:45:00,
2013-04-16 20:50:00,34.5,31.6,30.31,NW,313,0.0,0.0,89,0.00,,OVC100,0.00,VWS V14.01,2013-04-17 01:50:00,
2013-04-16 20:55:00,34.4,31.8,30.31,NW,317,0.0,0.0,90,0.00,,OVC100,0.00,VWS V14.01,2013-04-17 01:55:00,
2013-04-16 21:00:00,34.3,31.7,30.32,NW,315,0.0,0.0,90,0.00,,OVC100,0.00,VWS V14.01,2013-04-17 02:00:00,
2013-04-16 21:10:00,34.2,31.6,30.33,NW,321,0.0,0.0,90,0.00,,SCT110,0.00,VWS V14.01,2013-04-17 02:10:00,
2013-04-16 21:20:00,33.9,31.3,30.33,NW,319,0.0,0.0,90,0.00,,SCT110,0.00,VWS V14.01,2013-04-17 02:20:00,
2013-04-16 21:25:00,33.8,31.2,30.33,NNW,330,0.0,0.0,90,0.00,,SCT090,0.00,VWS V14.01,2013-04-17 02:25:00,
2013-04-16 21:35:00,33.7,31.1,30.33,NNW,331,0.0,0.0,90,0.00,,SCT090,0.00,VWS V14.01,2013-04-17 02:35:00,
2013-04-16 21:40:00,33.6,31.3,30.33,NNW,338,1.0,4.2,91,0.00,,SCT090,0.00,VWS V14.01,2013-04-17 02:40:00,
2013-04-16 21:45:00,33.4,31.1,30.33,North,350,3.0,4.2,91,0.00,,CLR,0.00,VWS V14.01,2013-04-17 02:45:00,
2013-04-16 21:50:00,33.2,30.9,30.33,NNW,334,4.0,4.2,91,0.00,,CLR,0.00,VWS V14.01,2013-04-17 02:50:00,
2013-04-16 21:55:00,33.2,30.9,30.33,NNW,344,3.0,5.2,91,0.00,,CLR,0.00,VWS V14.01,2013-04-17 02:55:00,
2013-04-16 22:00:00,33.1,30.8,30.33,NNW,346,3.0,5.2,91,0.00,,CLR,0.00,VWS V14.01,2013-04-17 03:00:00,
2013-04-16 22:05:00,33.1,30.5,30.33,North,355,6.0,8.4,90,0.00,,CLR,0.00,VWS V14.01,2013-04-17 03:05:00,
2013-04-16 22:15:00,33.2,30.6,30.33,North,355,3.0,9.4,90,0.00,,CLR,0.00,VWS V14.01,2013-04-17 03:15:00,
2013-04-16 22:25:00,33.2,30.3,30.33,North,355,3.0,8.4,89,0.00,,CLR,0.00,VWS V14.01,2013-04-17 03:25:00,
2013-04-16 22:35:00,33.2,30.3,30.33,NNE,25,4.0,10.5,89,0.00,,CLR,0.00,VWS V14.01,2013-04-17 03:35:00,
2013-04-16 22:45:00,33.1,30.2,30.33,North,360,4.0,9.4,89,0.00,,CLR,0.00,VWS V14.01,2013-04-17 03:45:00,
2013-04-16 22:50:00,33.0,30.1,30.33,NNE,17,4.0,7.3,89,0.00,,CLR,0.00,VWS V14.01,2013-04-17 03:50:00,
2013-04-16 22:55:00,32.9,30.0,30.33,NE,45,4.0,8.4,89,0.00,,CLR,0.00,VWS V14.01,2013-04-17 03:55:00,
2013-04-16 23:00:00,33.0,30.1,30.33,North,355,4.0,10.5,89,0.00,,CLR,0.00,VWS V14.01,2013-04-17 04:00:00,
2013-04-16 23:05:00,33.0,30.1,30.32,North,360,5.0,9.4,89,0.00,,SCT120,0.00,VWS V14.01,2013-04-17 04:05:00,
2013-04-16 23:10:00,32.9,30.0,30.32,North,360,6.0,9.4,89,0.00,,SCT120,0.00,VWS V14.01,2013-04-17 04:10:00,
2013-04-16 23:15:00,32.9,30.0,30.32,North,355,4.0,7.3,89,0.00,,SCT120,0.00,VWS V14.01,2013-04-17 04:15:00,
2013-04-16 23:20:00,32.8,29.9,30.32,North,360,4.0,9.4,89,0.00,,SCT120,0.00,VWS V14.01,2013-04-17 04:20:00,
2013-04-16 23:25:00,32.8,29.9,30.32,North,350,4.0,6.3,89,0.00,,SCT120,0.00,VWS V14.01,2013-04-17 04:25:00,
2013-04-16 23:35:00,32.8,30.2,30.32,North,9,5.0,7.3,90,0.00,,SCT120,0.00,VWS V14.01,2013-04-17 04:35:00,
2013-04-16 23:40:00,32.7,30.4,30.32,North,355,6.0,8.4,91,0.00,,SCT120,0.00,VWS V14.01,2013-04-17 04:40:00,
2013-04-16 23:50:00,32.6,30.3,30.32,NNE,30,6.0,8.4,91,0.00,,BKN120,0.00,VWS V14.01,2013-04-17 04:50:00,
2013-04-16 23:55:00,32.6,30.3,30.32,North,355,0.0,8.4,91,0.00,,BKN120,0.00,VWS V14.01,2013-04-17 04:55:00,